Time;durP1;ratioP1;P1;durP2;ratioP2;P2;SDS_P1;SDS_P2;PMS_P1;PMS_P2;Temp;Humidity;BMP_temperature;BMP_pressure;BME280_temperature;BME280_humidity;BME280_pressure;Samples;Min_cycle;Max_cycle;Signal;HPM_P1;HPM_P2
2023/11/26 00:00:05;;;;;;;8.65;6.00;;;;;;;;;;5057912;28;20047;-67
2023/11/26 00:02:31;;;;;;;8.25;5.00;;;;;;;;;;5066177;28;20220;-70
2023/11/26 00:04:57;;;;;;;8.00;4.60;;;;;;;;;;5056173;28;20075;-67
2023/11/26 00:07:23;;;;;;;8.70;3.85;;;;;;;;;;5057411;28;20597;-67
2023/11/26 00:09:50;;;;;;;4.35;3.60;;;;;;;;;;5062397;28;20024;-66
2023/11/26 00:12:16;;;;;;;6.78;4.60;;;;;;;;;;5056552;28;20096;-67
2023/11/26 00:14:42;;;;;;;5.90;4.63;;;;;;;;;;5060389;28;20024;-67
2023/11/26 00:17:08;;;;;;;7.47;3.80;;;;;;;;;;5062706;28;20073;-67
2023/11/26 00:19:34;;;;;;;6.28;3.40;;;;;;;;;;5064962;28;20032;-67
2023/11/26 00:22:01;;;;;;;7.65;3.72;;;;;;;;;;5064803;28;20033;-67
2023/11/26 00:24:28;;;;;;;4.78;3.30;;;;;;;;;;5086412;28;20373;-67
2023/11/26 00:26:54;;;;;;;6.80;3.80;;;;;;;;;;5081731;28;20032;-67
2023/11/26 00:29:20;;;;;;;5.85;2.90;;;;;;;;;;5068644;28;20029;-69
2023/11/26 00:31:47;;;;;;;4.55;3.30;;;;;;;;;;5063834;28;20029;-67
2023/11/26 00:34:14;;;;;;;4.57;3.00;;;;;;;;;;5070072;28;20040;-68
2023/11/26 00:36:40;;;;;;;4.00;3.08;;;;;;;;;;5059954;28;20132;-67
2023/11/26 00:39:07;;;;;;;12.75;7.68;;;;;;;;;;5064362;28;20545;-67
2023/11/26 00:41:34;;;;;;;13.88;7.65;;;;;;;;;;5065078;28;20056;-66
2023/11/26 00:44:00;;;;;;;7.55;4.60;;;;;;;;;;5056033;28;20091;-67
2023/11/26 00:46:27;;;;;;;13.90;7.07;;;;;;;;;;5073951;28;20162;-66
2023/11/26 00:48:53;;;;;;;5.60;3.65;;;;;;;;;;5051331;28;20051;-67
2023/11/26 00:51:20;;;;;;;8.48;4.75;;;;;;;;;;5065708;28;20025;-67
2023/11/26 00:53:46;;;;;;;5.45;3.45;;;;;;;;;;5064803;28;20039;-67
2023/11/26 00:56:12;;;;;;;6.20;3.25;;;;;;;;;;5064384;28;20039;-67
2023/11/26 00:58:38;;;;;;;4.97;3.42;;;;;;;;;;5059773;28;20028;-66
2023/11/26 01:01:04;;;;;;;7.75;3.30;;;;;;;;;;5058923;28;20383;-67
2023/11/26 01:03:31;;;;;;;3.85;3.08;;;;;;;;;;5055485;28;20111;-67
2023/11/26 01:05:57;;;;;;;4.35;3.05;;;;;;;;;;5060263;28;20412;-67
2023/11/26 01:08:24;;;;;;;3.67;2.97;;;;;;;;;;5058253;28;20400;-66
2023/11/26 01:10:51;;;;;;;4.43;2.70;;;;;;;;;;5052898;28;20427;-66
2023/11/26 01:13:17;;;;;;;5.55;2.78;;;;;;;;;;5058509;28;20564;-66
2023/11/26 01:15:44;;;;;;;4.18;3.13;;;;;;;;;;5063197;28;20503;-66
2023/11/26 01:18:10;;;;;;;5.95;2.95;;;;;;;;;;5075399;28;20063;-66
2023/11/26 01:20:36;;;;;;;5.93;2.92;;;;;;;;;;5071049;28;20441;-67
2023/11/26 01:23:02;;;;;;;10.85;3.20;;;;;;;;;;5063612;28;20048;-66
2023/11/26 01:25:28;;;;;;;6.25;2.70;;;;;;;;;;5058335;28;20036;-67
2023/11/26 01:27:54;;;;;;;6.28;3.05;;;;;;;;;;5062324;28;20075;-67
2023/11/26 01:30:21;;;;;;;7.57;3.13;;;;;;;;;;5057332;28;20033;-66
2023/11/26 01:32:47;;;;;;;5.22;2.92;;;;;;;;;;5057788;28;20077;-67
2023/11/26 01:35:13;;;;;;;3.95;3.10;;;;;;;;;;5064093;28;20036;-66
2023/11/26 01:37:40;;;;;;;3.20;2.88;;;;;;;;;;5065196;28;20040;-67
2023/11/26 01:40:11;;;;;;;3.50;2.67;;;;;;;;;;5047956;28;20029;-67
2023/11/26 01:42:41;;;;;;;6.20;2.47;;;;;;;;;;5051907;28;20029;-67
2023/11/26 01:45:07;;;;;;;3.45;3.15;;;;;;;;;;5059369;28;20067;-67
2023/11/26 01:47:34;;;;;;;6.10;2.58;;;;;;;;;;5061981;28;20025;-67
2023/11/26 01:50:00;;;;;;;5.70;2.75;;;;;;;;;;5064372;28;20055;-67
2023/11/26 01:52:26;;;;;;;2.85;2.30;;;;;;;;;;5065663;28;20401;-67
2023/11/26 01:54:53;;;;;;;5.00;2.70;;;;;;;;;;5062156;28;20988;-66
2023/11/26 01:57:20;;;;;;;2.88;2.13;;;;;;;;;;5059688;28;20032;-66
2023/11/26 01:59:46;;;;;;;6.15;2.40;;;;;;;;;;5053875;28;20078;-66
2023/11/26 02:02:12;;;;;;;2.50;2.30;;;;;;;;;;5055094;28;20493;-67
2023/11/26 02:04:38;;;;;;;3.10;2.28;;;;;;;;;;5062434;28;20017;-67
2023/11/26 02:07:05;;;;;;;7.05;2.13;;;;;;;;;;5060744;28;20133;-67
2023/11/26 02:09:32;;;;;;;3.00;2.42;;;;;;;;;;5063570;28;20008;-67
2023/11/26 02:11:58;;;;;;;5.28;2.83;;;;;;;;;;5055068;28;20483;-67
2023/11/26 02:14:24;;;;;;;2.50;2.22;;;;;;;;;;5052099;28;20033;-66
2023/11/26 02:16:50;;;;;;;3.65;1.90;;;;;;;;;;5063171;28;20547;-67
2023/11/26 02:19:26;;;;;;;3.88;1.90;;;;;;;;;;5059065;28;20033;-67
2023/11/26 02:21:53;;;;;;;2.50;1.90;;;;;;;;;;5062734;28;20036;-66
2023/11/26 02:24:21;;;;;;;2.15;1.60;;;;;;;;;;5061388;28;20052;-67
2023/11/26 02:26:47;;;;;;;5.03;2.28;;;;;;;;;;5076628;28;20036;-68
2023/11/26 02:29:14;;;;;;;3.47;1.70;;;;;;;;;;5068826;28;20048;-67
2023/11/26 02:31:41;;;;;;;1.80;1.70;;;;;;;;;;5075941;28;20025;-68
2023/11/26 02:34:07;;;;;;;2.40;1.60;;;;;;;;;;5086101;28;20027;-68
2023/11/26 02:36:33;;;;;;;1.77;1.67;;;;;;;;;;5066728;28;20369;-67
2023/11/26 02:38:59;;;;;;;1.80;1.70;;;;;;;;;;5063286;28;20116;-67
2023/11/26 02:41:26;;;;;;;2.58;1.65;;;;;;;;;;5058470;28;20025;-67
2023/11/26 02:43:52;;;;;;;1.67;1.58;;;;;;;;;;5061147;28;20346;-66
2023/11/26 02:46:18;;;;;;;2.30;1.88;;;;;;;;;;5060007;28;20120;-67
2023/11/26 02:48:44;;;;;;;1.58;1.48;;;;;;;;;;5061535;28;20354;-68
2023/11/26 02:51:14;;;;;;;1.60;1.50;;;;;;;;;;5061236;28;20039;-67
2023/11/26 02:53:40;;;;;;;1.52;1.42;;;;;;;;;;5074725;28;20025;-66
2023/11/26 02:56:07;;;;;;;4.25;1.70;;;;;;;;;;5064394;28;20051;-67
2023/11/26 02:58:33;;;;;;;2.15;1.67;;;;;;;;;;5070345;28;20388;-67
2023/11/26 03:00:59;;;;;;;4.25;1.80;;;;;;;;;;5060215;28;20128;-67
2023/11/26 03:03:25;;;;;;;3.15;1.60;;;;;;;;;;5059801;28;20047;-67
2023/11/26 03:05:54;;;;;;;1.50;1.40;;;;;;;;;;5058905;28;20120;-67
2023/11/26 03:08:32;;;;;;;2.08;1.75;;;;;;;;;;5060373;28;20511;-67
2023/11/26 03:13:43;;;;;;;2.25;1.52;;;;;;;;;;5066883;28;20258;-66
2023/11/26 03:16:11;;;;;;;1.63;1.52;;;;;;;;;;5060490;28;20447;-67
2023/11/26 03:18:37;;;;;;;2.78;1.70;;;;;;;;;;5076977;28;20052;-66
2023/11/26 03:21:04;;;;;;;1.55;1.45;;;;;;;;;;5064763;28;20032;-66
2023/11/26 03:23:30;;;;;;;6.03;1.80;;;;;;;;;;5059839;28;20024;-67
2023/11/26 03:25:57;;;;;;;2.97;1.75;;;;;;;;;;5059570;28;20064;-67
2023/11/26 03:28:24;;;;;;;2.10;1.60;;;;;;;;;;5065696;28;20421;-67
2023/11/26 03:30:52;;;;;;;4.22;1.80;;;;;;;;;;5060413;28;20496;-70
2023/11/26 03:33:18;;;;;;;1.80;1.70;;;;;;;;;;5060018;28;20025;-66
2023/11/26 03:35:50;;;;;;;2.90;1.77;;;;;;;;;;5065228;28;20441;-66
2023/11/26 03:38:18;;;;;;;2.75;1.55;;;;;;;;;;5058607;28;20115;-67
2023/11/26 03:40:44;;;;;;;1.63;1.52;;;;;;;;;;5053367;28;20580;-67
2023/11/26 03:43:11;;;;;;;1.65;1.55;;;;;;;;;;5063227;28;20064;-67
2023/11/26 03:45:37;;;;;;;1.70;1.60;;;;;;;;;;5059826;28;20040;-67
2023/11/26 03:48:03;;;;;;;4.32;1.83;;;;;;;;;;5060990;28;20493;-66
2023/11/26 03:50:30;;;;;;;2.90;1.80;;;;;;;;;;5074963;28;20028;-67
2023/11/26 03:52:56;;;;;;;1.70;1.60;;;;;;;;;;5058864;28;20480;-66
2023/11/26 03:55:24;;;;;;;1.80;1.70;;;;;;;;;;5057154;28;20115;-67
2023/11/26 03:57:51;;;;;;;1.92;1.75;;;;;;;;;;5059192;28;20085;-66
2023/11/26 04:00:17;;;;;;;3.33;2.05;;;;;;;;;;5062730;28;20609;-67
2023/11/26 04:02:44;;;;;;;1.65;1.55;;;;;;;;;;5062694;28;20032;-67
2023/11/26 04:05:10;;;;;;;2.15;1.70;;;;;;;;;;5071387;28;20025;-67
2023/11/26 04:07:37;;;;;;;1.67;1.58;;;;;;;;;;5058256;28;20025;-67
2023/11/26 04:10:03;;;;;;;3.35;2.03;;;;;;;;;;5077480;28;20596;-66
2023/11/26 04:12:29;;;;;;;2.25;1.63;;;;;;;;;;5066622;28;20025;-67
2023/11/26 04:14:58;;;;;;;2.42;1.48;;;;;;;;;;5062078;28;20082;-67
2023/11/26 04:17:25;;;;;;;1.90;1.70;;;;;;;;;;5068664;28;20100;-68
2023/11/26 04:19:52;;;;;;;2.20;2.00;;;;;;;;;;5075364;28;20640;-69
2023/11/26 04:22:20;;;;;;;3.15;2.30;;;;;;;;;;5064559;28;20039;-67
2023/11/26 04:24:46;;;;;;;2.15;1.88;;;;;;;;;;5059001;28;20568;-66
2023/11/26 04:27:12;;;;;;;1.92;1.70;;;;;;;;;;5065140;28;20523;-66
2023/11/26 04:29:38;;;;;;;3.03;1.92;;;;;;;;;;5056613;28;20079;-67
2023/11/26 04:32:05;;;;;;;1.33;1.33;;;;;;;;;;5058354;28;20031;-68
2023/11/26 04:34:31;;;;;;;1.70;1.60;;;;;;;;;;5059989;28;20055;-67
2023/11/26 04:36:58;;;;;;;1.30;1.30;;;;;;;;;;5069718;28;20033;-67
2023/11/26 04:39:24;;;;;;;1.60;1.50;;;;;;;;;;5058291;28;20337;-66
2023/11/26 04:41:52;;;;;;;4.97;1.58;;;;;;;;;;5079598;28;20036;-66
2023/11/26 04:44:18;;;;;;;1.70;1.60;;;;;;;;;;5060560;28;20072;-67
2023/11/26 04:46:45;;;;;;;1.92;1.70;;;;;;;;;;5057803;28;20471;-67
2023/11/26 04:49:12;;;;;;;1.45;1.45;;;;;;;;;;5063688;28;20016;-67
2023/11/26 04:51:38;;;;;;;1.73;1.63;;;;;;;;;;5062656;28;20069;-69
2023/11/26 04:54:04;;;;;;;1.60;1.50;;;;;;;;;;5065954;28;20029;-71
2023/11/26 04:56:31;;;;;;;1.92;1.70;;;;;;;;;;5058951;28;20025;-67
2023/11/26 04:58:57;;;;;;;1.60;1.50;;;;;;;;;;5056103;28;20063;-68
2023/11/26 05:01:23;;;;;;;1.70;1.60;;;;;;;;;;5063176;28;20033;-69
2023/11/26 05:03:49;;;;;;;1.77;1.65;;;;;;;;;;5064613;28;20266;-67
2023/11/26 05:06:15;;;;;;;2.10;1.70;;;;;;;;;;5063443;28;20028;-68
2023/11/26 05:08:43;;;;;;;1.60;1.50;;;;;;;;;;5061003;28;20508;-67
2023/11/26 05:11:10;;;;;;;2.22;1.55;;;;;;;;;;5056886;28;20559;-67
2023/11/26 05:13:36;;;;;;;1.60;1.50;;;;;;;;;;5063419;28;20025;-72
2023/11/26 05:16:03;;;;;;;1.60;1.50;;;;;;;;;;5064909;28;20078;-66
2023/11/26 05:18:30;;;;;;;1.83;1.73;;;;;;;;;;5064769;28;20108;-66
2023/11/26 05:20:57;;;;;;;1.77;1.67;;;;;;;;;;5063302;28;20115;-67
2023/11/26 05:23:23;;;;;;;3.70;1.80;;;;;;;;;;5072598;28;20025;-67
2023/11/26 05:25:53;;;;;;;3.10;1.70;;;;;;;;;;5087246;28;20119;-66
2023/11/26 05:28:19;;;;;;;1.80;1.70;;;;;;;;;;5064124;28;20413;-67
2023/11/26 05:30:45;;;;;;;1.75;1.65;;;;;;;;;;5070282;28;20559;-67
2023/11/26 05:33:11;;;;;;;1.60;1.50;;;;;;;;;;5061417;28;20103;-67
2023/11/26 05:35:38;;;;;;;1.58;1.48;;;;;;;;;;5069453;28;20028;-67
2023/11/26 05:38:04;;;;;;;3.10;1.65;;;;;;;;;;5068028;28;20731;-66
2023/11/26 05:40:31;;;;;;;1.60;1.50;;;;;;;;;;5062670;28;20056;-66
2023/11/26 05:42:57;;;;;;;5.30;2.00;;;;;;;;;;5060027;28;20555;-67
2023/11/26 05:45:23;;;;;;;1.70;1.60;;;;;;;;;;5060630;28;20241;-67
2023/11/26 05:47:49;;;;;;;1.88;1.50;;;;;;;;;;5064007;28;20434;-66
2023/11/26 05:50:15;;;;;;;3.72;1.55;;;;;;;;;;5061621;28;20338;-67
2023/11/26 05:52:41;;;;;;;2.75;1.50;;;;;;;;;;5061121;28;21494;-67
2023/11/26 05:55:08;;;;;;;1.85;1.70;;;;;;;;;;5065308;28;20048;-67
2023/11/26 05:57:35;;;;;;;3.83;1.90;;;;;;;;;;5051574;28;20475;-67
2023/11/26 06:00:03;;;;;;;1.80;1.70;;;;;;;;;;5061086;28;20086;-67
2023/11/26 06:02:29;;;;;;;1.60;1.50;;;;;;;;;;5062745;28;20373;-67
2023/11/26 06:04:56;;;;;;;1.50;1.45;;;;;;;;;;5059479;28;20108;-67
2023/11/26 06:07:23;;;;;;;4.25;1.50;;;;;;;;;;5060124;28;20417;-67
2023/11/26 06:09:49;;;;;;;2.15;1.95;;;;;;;;;;5066322;28;20025;-67
2023/11/26 06:12:15;;;;;;;1.70;1.60;;;;;;;;;;5060619;28;20024;-67
2023/11/26 06:14:41;;;;;;;2.58;1.55;;;;;;;;;;5058523;28;20088;-67
2023/11/26 06:17:07;;;;;;;1.55;1.45;;;;;;;;;;5066598;28;20384;-67
2023/11/26 06:19:33;;;;;;;1.65;1.55;;;;;;;;;;5066426;28;20040;-68
2023/11/26 06:21:59;;;;;;;1.52;1.42;;;;;;;;;;5065751;28;20415;-67
2023/11/26 06:24:25;;;;;;;3.30;1.50;;;;;;;;;;5066893;28;20028;-67
2023/11/26 06:26:54;;;;;;;1.63;1.52;;;;;;;;;;5054540;28;20029;-67
2023/11/26 06:29:20;;;;;;;5.35;2.42;;;;;;;;;;5060208;28;20033;-66
2023/11/26 06:31:46;;;;;;;1.70;1.60;;;;;;;;;;5063643;28;20529;-67
2023/11/26 06:34:13;;;;;;;1.98;1.70;;;;;;;;;;5062194;28;20435;-67
2023/11/26 06:36:39;;;;;;;1.65;1.55;;;;;;;;;;5064170;28;20111;-67
2023/11/26 06:39:06;;;;;;;1.85;1.75;;;;;;;;;;5063632;28;20036;-67
2023/11/26 06:41:34;;;;;;;3.22;1.83;;;;;;;;;;5056382;28;20040;-67
2023/11/26 06:44:00;;;;;;;1.60;1.50;;;;;;;;;;5054291;28;20591;-67
2023/11/26 06:46:29;;;;;;;2.28;1.77;;;;;;;;;;5059080;28;20028;-67
2023/11/26 06:48:56;;;;;;;2.00;1.70;;;;;;;;;;5056739;28;20028;-66
2023/11/26 06:51:22;;;;;;;2.00;1.90;;;;;;;;;;5054148;28;20071;-66
2023/11/26 06:53:50;;;;;;;3.03;1.80;;;;;;;;;;5051586;28;20119;-67
2023/11/26 06:56:16;;;;;;;1.75;1.65;;;;;;;;;;5060932;28;20457;-68
2023/11/26 06:58:43;;;;;;;1.90;1.80;;;;;;;;;;5055182;28;20024;-67
2023/11/26 07:01:10;;;;;;;3.55;1.90;;;;;;;;;;5064872;28;20063;-67
2023/11/26 07:03:37;;;;;;;2.10;1.65;;;;;;;;;;5063087;28;20028;-67
2023/11/26 07:06:07;;;;;;;3.05;1.92;;;;;;;;;;5058181;28;20063;-67
2023/11/26 07:08:34;;;;;;;5.55;2.35;;;;;;;;;;5050373;28;20466;-67
2023/11/26 07:11:00;;;;;;;3.65;2.08;;;;;;;;;;5059660;28;20025;-66
2023/11/26 07:13:26;;;;;;;2.88;1.90;;;;;;;;;;5060577;28;20035;-67
2023/11/26 07:15:52;;;;;;;4.03;1.90;;;;;;;;;;5063196;28;20047;-67
2023/11/26 07:18:19;;;;;;;2.75;2.10;;;;;;;;;;5067881;28;20036;-67
2023/11/26 07:20:46;;;;;;;2.42;1.98;;;;;;;;;;5069836;28;20032;-67
2023/11/26 07:23:12;;;;;;;2.10;1.90;;;;;;;;;;5060194;28;20039;-67
2023/11/26 07:25:39;;;;;;;3.78;1.80;;;;;;;;;;5056755;28;20035;-67
2023/11/26 07:28:08;;;;;;;2.22;2.00;;;;;;;;;;5059544;28;20021;-67
2023/11/26 07:30:35;;;;;;;2.25;1.90;;;;;;;;;;5057599;28;20111;-67
2023/11/26 07:33:01;;;;;;;3.17;2.33;;;;;;;;;;5056960;28;20063;-67
2023/11/26 07:35:30;;;;;;;1.75;1.65;;;;;;;;;;5049866;28;20028;-69
2023/11/26 07:37:56;;;;;;;3.38;2.17;;;;;;;;;;5053756;28;20137;-69
2023/11/26 07:40:22;;;;;;;7.57;2.67;;;;;;;;;;5056812;28;20063;-69
2023/11/26 07:42:50;;;;;;;3.53;2.58;;;;;;;;;;5056326;28;20093;-69
2023/11/26 07:45:16;;;;;;;3.60;2.55;;;;;;;;;;5055313;28;20063;-70
2023/11/26 07:47:42;;;;;;;2.30;2.10;;;;;;;;;;5072281;28;20098;-70
2023/11/26 07:50:09;;;;;;;3.85;2.80;;;;;;;;;;5059756;28;20037;-70
2023/11/26 07:52:39;;;;;;;3.80;3.08;;;;;;;;;;5057627;28;20020;-70
2023/11/26 07:55:05;;;;;;;4.28;3.35;;;;;;;;;;5056774;28;20091;-69
2023/11/26 07:57:37;;;;;;;6.45;3.90;;;;;;;;;;5056814;28;20127;-70
2023/11/26 08:00:04;;;;;;;3.25;2.95;;;;;;;;;;5068413;28;20024;-71
2023/11/26 08:02:30;;;;;;;3.50;2.75;;;;;;;;;;5059382;28;20020;-71
2023/11/26 08:04:57;;;;;;;3.05;2.70;;;;;;;;;;5057848;28;20082;-70
2023/11/26 08:07:24;;;;;;;3.30;3.00;;;;;;;;;;5059653;28;20024;-69
2023/11/26 08:09:50;;;;;;;5.43;3.28;;;;;;;;;;5059773;28;20127;-70
2023/11/26 08:12:20;;;;;;;4.15;3.22;;;;;;;;;;5062827;28;20432;-70
2023/11/26 08:14:47;;;;;;;5.38;3.70;;;;;;;;;;5058264;28;20413;-70
2023/11/26 08:17:14;;;;;;;4.63;3.60;;;;;;;;;;5058440;28;20025;-70
2023/11/26 08:19:41;;;;;;;3.83;3.05;;;;;;;;;;5059095;28;20060;-71
2023/11/26 08:22:08;;;;;;;4.15;2.92;;;;;;;;;;5073197;28;20579;-70
2023/11/26 08:24:39;;;;;;;4.75;3.55;;;;;;;;;;5060586;28;20404;-69
2023/11/26 08:27:07;;;;;;;4.00;3.42;;;;;;;;;;5055084;28;20030;-69
2023/11/26 08:29:33;;;;;;;4.88;3.72;;;;;;;;;;5057564;28;20078;-68
2023/11/26 08:32:03;;;;;;;5.65;3.55;;;;;;;;;;5059424;28;20021;-69
2023/11/26 08:34:34;;;;;;;5.90;3.72;;;;;;;;;;5058452;28;20058;-70
2023/11/26 08:37:05;;;;;;;7.32;3.65;;;;;;;;;;5058226;28;20031;-69
2023/11/26 08:39:33;;;;;;;4.80;3.55;;;;;;;;;;5059112;28;20669;-70
2023/11/26 08:41:59;;;;;;;5.72;4.18;;;;;;;;;;5055835;28;20499;-69
2023/11/26 08:44:25;;;;;;;9.73;3.85;;;;;;;;;;5055835;28;20135;-70
2023/11/26 08:46:52;;;;;;;4.97;3.55;;;;;;;;;;5057909;28;20032;-69
2023/11/26 08:49:23;;;;;;;3.67;3.38;;;;;;;;;;5051297;28;20208;-71
2023/11/26 08:51:49;;;;;;;4.47;3.20;;;;;;;;;;5049350;28;20051;-69
2023/11/26 08:54:16;;;;;;;7.80;3.65;;;;;;;;;;5079157;28;20020;-69
2023/11/26 08:56:42;;;;;;;6.57;3.40;;;;;;;;;;5057908;28;20027;-69
2023/11/26 08:59:09;;;;;;;4.28;3.13;;;;;;;;;;5064157;28;20033;-69
2023/11/26 09:01:37;;;;;;;7.93;3.17;;;;;;;;;;5060076;28;20025;-69
2023/11/26 09:04:03;;;;;;;4.80;2.60;;;;;;;;;;5060648;28;20864;-69
2023/11/26 09:06:30;;;;;;;3.03;2.58;;;;;;;;;;5060059;28;20024;-69
2023/11/26 09:08:56;;;;;;;6.90;2.95;;;;;;;;;;5058113;28;20075;-69
2023/11/26 09:11:22;;;;;;;5.68;3.17;;;;;;;;;;5058845;28;20032;-69
2023/11/26 09:13:51;;;;;;;5.32;3.15;;;;;;;;;;5058505;28;20025;-69
2023/11/26 09:16:17;;;;;;;3.40;2.80;;;;;;;;;;5060806;28;20093;-69
2023/11/26 09:18:44;;;;;;;6.35;3.45;;;;;;;;;;5056539;28;20029;-69
2023/11/26 09:21:11;;;;;;;5.80;3.13;;;;;;;;;;5061066;28;20028;-69
2023/11/26 09:23:37;;;;;;;3.97;3.20;;;;;;;;;;5059261;28;20045;-70
2023/11/26 09:26:04;;;;;;;4.78;2.70;;;;;;;;;;5057285;28;20029;-71
2023/11/26 09:28:30;;;;;;;3.88;2.58;;;;;;;;;;5062256;28;20040;-70
2023/11/26 09:30:56;;;;;;;3.17;2.30;;;;;;;;;;5057109;28;20094;-71
2023/11/26 09:33:22;;;;;;;3.30;2.47;;;;;;;;;;5054855;28;20492;-69
2023/11/26 09:35:49;;;;;;;4.47;2.35;;;;;;;;;;5060869;28;20487;-70
2023/11/26 09:38:15;;;;;;;2.50;2.25;;;;;;;;;;5057377;28;20033;-70
2023/11/26 09:40:41;;;;;;;2.47;2.22;;;;;;;;;;5070457;28;20036;-70
2023/11/26 09:43:08;;;;;;;6.90;2.65;;;;;;;;;;5058631;28;20055;-70
2023/11/26 09:45:34;;;;;;;3.75;2.90;;;;;;;;;;5056249;28;20040;-71
2023/11/26 09:48:00;;;;;;;5.25;2.65;;;;;;;;;;5058809;28;20638;-69
2023/11/26 09:50:31;;;;;;;2.60;2.40;;;;;;;;;;5062045;28;20387;-70
2023/11/26 09:52:58;;;;;;;3.40;2.83;;;;;;;;;;5058117;28;20012;-70
2023/11/26 09:55:24;;;;;;;6.95;2.60;;;;;;;;;;5058354;28;20028;-70
2023/11/26 09:57:50;;;;;;;3.83;2.72;;;;;;;;;;5051624;28;20029;-71
2023/11/26 10:00:17;;;;;;;4.30;2.63;;;;;;;;;;5063284;28;20535;-72
2023/11/26 10:02:43;;;;;;;5.53;3.38;;;;;;;;;;5058928;28;20123;-71
2023/11/26 10:05:29;;;;;;;4.07;3.28;;;;;;;;;;5059603;28;20024;-71
2023/11/26 10:07:55;;;;;;;4.05;3.03;;;;;;;;;;5057023;28;20029;-71
2023/11/26 10:10:23;;;;;;;3.38;2.67;;;;;;;;;;5079944;28;20013;-73
2023/11/26 10:12:53;;;;;;;3.50;2.53;;;;;;;;;;5063783;28;20038;-72
2023/11/26 10:15:21;;;;;;;4.03;3.03;;;;;;;;;;5064933;28;20078;-70
2023/11/26 10:17:59;;;;;;;3.65;2.50;;;;;;;;;;5060664;28;20847;-70
2023/11/26 10:20:26;;;;;;;6.85;4.47;;;;;;;;;;5058536;28;20511;-70
2023/11/26 10:22:56;;;;;;;3.70;2.97;;;;;;;;;;5058398;28;20024;-69
2023/11/26 10:25:23;;;;;;;3.10;2.60;;;;;;;;;;5059252;28;20024;-70
2023/11/26 10:27:50;;;;;;;2.10;1.90;;;;;;;;;;5055851;28;20024;-69
2023/11/26 10:30:30;;;;;;;2.33;1.65;;;;;;;;;;5060882;28;20473;-69
2023/11/26 10:33:03;;;;;;;1.80;1.63;;;;;;;;;;5069389;28;20020;-70
2023/11/26 10:35:50;;;;;;;1.92;1.80;;;;;;;;;;5062801;28;20377;-70
2023/11/26 10:38:17;;;;;;;2.88;1.92;;;;;;;;;;5062206;28;20492;-70
2023/11/26 10:40:43;;;;;;;1.90;1.77;;;;;;;;;;5060898;28;20408;-70
2023/11/26 10:43:10;;;;;;;3.47;1.70;;;;;;;;;;5061366;28;20044;-70
2023/11/26 10:45:37;;;;;;;1.50;1.30;;;;;;;;;;5061840;28;20025;-70
2023/11/26 10:48:10;;;;;;;1.70;1.60;;;;;;;;;;5054849;28;20598;-70
2023/11/26 10:50:39;;;;;;;1.15;1.15;;;;;;;;;;5059542;28;20064;-70
2023/11/26 10:53:09;;;;;;;1.67;1.50;;;;;;;;;;5056760;28;20025;-69
2023/11/26 10:55:41;;;;;;;1.65;1.38;;;;;;;;;;5061377;28;20035;-70
2023/11/26 10:58:13;;;;;;;1.77;1.67;;;;;;;;;;5075839;28;20028;-70
2023/11/26 11:00:39;;;;;;;1.83;1.73;;;;;;;;;;5061217;28;20481;-70
2023/11/26 11:03:06;;;;;;;1.85;1.52;;;;;;;;;;5058189;28;20557;-69
2023/11/26 11:05:34;;;;;;;1.42;1.33;;;;;;;;;;5061682;28;20025;-69
2023/11/26 11:08:00;;;;;;;1.88;1.60;;;;;;;;;;5062408;28;20029;-69
2023/11/26 11:10:41;;;;;;;2.85;1.70;;;;;;;;;;5060272;28;20070;-70
2023/11/26 11:13:17;;;;;;;1.40;1.30;;;;;;;;;;5063076;28;20384;-70
2023/11/26 11:15:43;;;;;;;1.40;1.40;;;;;;;;;;5043269;28;20125;-70
2023/11/26 11:18:30;;;;;;;1.50;1.40;;;;;;;;;;5078073;28;20081;-70
2023/11/26 11:21:05;;;;;;;3.40;1.85;;;;;;;;;;5062038;28;20571;-69
2023/11/26 11:23:39;;;;;;;1.88;1.77;;;;;;;;;;5064573;28;20032;-72
2023/11/26 11:26:11;;;;;;;1.95;1.60;;;;;;;;;;5078948;28;20097;-69
2023/11/26 11:28:38;;;;;;;1.55;1.45;;;;;;;;;;5055630;28;20070;-68
2023/11/26 11:31:05;;;;;;;2.53;1.70;;;;;;;;;;5056971;28;20029;-68
2023/11/26 11:33:31;;;;;;;1.60;1.50;;;;;;;;;;5060108;28;20058;-68
2023/11/26 11:35:58;;;;;;;1.20;1.20;;;;;;;;;;5057730;28;20025;-70
2023/11/26 11:38:26;;;;;;;1.60;1.50;;;;;;;;;;5058998;28;20378;-67
2023/11/26 11:41:09;;;;;;;1.73;1.50;;;;;;;;;;5058286;28;20025;-69
2023/11/26 11:43:41;;;;;;;1.48;1.40;;;;;;;;;;5056627;28;20044;-71
2023/11/26 11:46:37;;;;;;;3.17;1.58;;;;;;;;;;5054908;28;20040;-71
2023/11/26 11:49:03;;;;;;;1.38;1.38;;;;;;;;;;5055086;28;20040;-69
2023/11/26 11:51:33;;;;;;;1.55;1.45;;;;;;;;;;5069112;28;20039;-71
2023/11/26 11:54:10;;;;;;;2.67;1.48;;;;;;;;;;5060980;28;20055;-71
2023/11/26 11:56:41;;;;;;;3.83;2.25;;;;;;;;;;5057174;28;20495;-71
2023/11/26 11:59:07;;;;;;;2.47;1.45;;;;;;;;;;5056634;28;20931;-73
2023/11/26 12:01:35;;;;;;;1.20;1.20;;;;;;;;;;5058952;28;20036;-71
2023/11/26 12:04:01;;;;;;;1.30;1.30;;;;;;;;;;5070432;28;20503;-70
2023/11/26 12:06:31;;;;;;;1.38;1.35;;;;;;;;;;5060313;28;20032;-71
2023/11/26 12:08:58;;;;;;;1.60;1.50;;;;;;;;;;5056028;28;20537;-71
2023/11/26 12:11:24;;;;;;;3.60;1.90;;;;;;;;;;5056872;28;20143;-72
2023/11/26 12:13:51;;;;;;;1.95;1.70;;;;;;;;;;5070617;28;20400;-71
2023/11/26 12:16:20;;;;;;;2.20;1.80;;;;;;;;;;5055066;28;20071;-72
2023/11/26 12:18:48;;;;;;;1.60;1.50;;;;;;;;;;5055797;28;20059;-71
2023/11/26 12:21:14;;;;;;;1.80;1.55;;;;;;;;;;5067020;28;20062;-72
2023/11/26 12:23:43;;;;;;;1.80;1.70;;;;;;;;;;5059273;28;20059;-72
2023/11/26 12:26:09;;;;;;;4.47;2.20;;;;;;;;;;5057480;28;20143;-72
2023/11/26 12:28:45;;;;;;;3.97;1.90;;;;;;;;;;5060053;28;20024;-72
2023/11/26 12:31:12;;;;;;;4.38;2.72;;;;;;;;;;5072158;28;20020;-71
2023/11/26 12:33:45;;;;;;;2.72;2.10;;;;;;;;;;5058359;28;20048;-71
2023/11/26 12:36:13;;;;;;;2.83;1.55;;;;;;;;;;5058643;28;20035;-71
2023/11/26 12:38:40;;;;;;;1.70;1.60;;;;;;;;;;5060085;28;20459;-72
2023/11/26 12:41:07;;;;;;;2.20;1.70;;;;;;;;;;5060343;28;20032;-73
2023/11/26 12:43:33;;;;;;;1.80;1.70;;;;;;;;;;5062431;28;20419;-71
2023/11/26 12:46:10;;;;;;;2.90;1.88;;;;;;;;;;5059847;28;20044;-73
2023/11/26 12:48:37;;;;;;;1.98;1.65;;;;;;;;;;5062979;28;20034;-71
2023/11/26 12:51:03;;;;;;;1.73;1.50;;;;;;;;;;5062568;28;20522;-73
2023/11/26 12:53:29;;;;;;;1.55;1.45;;;;;;;;;;5061858;28;20475;-71
2023/11/26 12:55:55;;;;;;;2.95;1.50;;;;;;;;;;5060766;28;20036;-71
2023/11/26 12:58:23;;;;;;;1.70;1.60;;;;;;;;;;5059152;28;20563;-71
2023/11/26 13:00:49;;;;;;;2.25;1.90;;;;;;;;;;5062059;28;20033;-71
2023/11/26 13:03:18;;;;;;;1.60;1.50;;;;;;;;;;5060854;28;20453;-71
2023/11/26 13:05:44;;;;;;;1.95;1.60;;;;;;;;;;5063744;28;20025;-71
2023/11/26 13:08:21;;;;;;;1.42;1.33;;;;;;;;;;5058326;28;20503;-71
2023/11/26 13:11:00;;;;;;;1.92;1.70;;;;;;;;;;5060242;28;20111;-71
2023/11/26 13:13:31;;;;;;;1.55;1.45;;;;;;;;;;5058931;28;20681;-72
2023/11/26 13:15:58;;;;;;;3.25;1.70;;;;;;;;;;5057039;28;20024;-71
2023/11/26 13:18:28;;;;;;;1.50;1.40;;;;;;;;;;5058939;28;20103;-70
2023/11/26 13:20:57;;;;;;;3.50;1.90;;;;;;;;;;5061475;28;20396;-68
2023/11/26 13:23:24;;;;;;;3.47;2.28;;;;;;;;;;5059340;28;20025;-67
2023/11/26 13:25:55;;;;;;;1.60;1.40;;;;;;;;;;5055677;28;20029;-68
2023/11/26 13:28:22;;;;;;;2.03;1.70;;;;;;;;;;5063863;28;20050;-65
2023/11/26 13:30:49;;;;;;;1.48;1.42;;;;;;;;;;5056491;28;21096;-66
2023/11/26 13:33:15;;;;;;;2.47;2.00;;;;;;;;;;5064379;28;20055;-67
2023/11/26 13:35:43;;;;;;;3.30;1.95;;;;;;;;;;5058208;28;21408;-68
2023/11/26 13:38:10;;;;;;;2.20;1.73;;;;;;;;;;5059994;28;20024;-66
2023/11/26 13:40:37;;;;;;;1.65;1.55;;;;;;;;;;5062301;28;20480;-67
2023/11/26 13:43:04;;;;;;;2.10;1.90;;;;;;;;;;5064596;28;20073;-64
2023/11/26 13:45:30;;;;;;;5.57;1.90;;;;;;;;;;5055690;28;20043;-65
2023/11/26 13:47:56;;;;;;;1.70;1.60;;;;;;;;;;5063020;28;20029;-65
2023/11/26 13:50:23;;;;;;;3.53;2.05;;;;;;;;;;5058983;28;20319;-64
2023/11/26 13:52:50;;;;;;;3.42;2.17;;;;;;;;;;5065031;28;20036;-67
2023/11/26 13:55:16;;;;;;;3.47;2.38;;;;;;;;;;5064825;28;20028;-65
2023/11/26 13:57:42;;;;;;;2.50;2.28;;;;;;;;;;5057005;28;20036;-63
2023/11/26 14:00:10;;;;;;;4.28;2.15;;;;;;;;;;5060569;28;20024;-64
2023/11/26 14:02:37;;;;;;;2.20;2.00;;;;;;;;;;5065251;28;20025;-65
2023/11/26 14:05:09;;;;;;;2.00;1.80;;;;;;;;;;5058967;28;20034;-65
2023/11/26 14:07:38;;;;;;;2.88;1.90;;;;;;;;;;5060806;28;20032;-68
2023/11/26 14:10:07;;;;;;;2.83;2.50;;;;;;;;;;5074409;28;20424;-65
2023/11/26 14:12:34;;;;;;;2.40;1.98;;;;;;;;;;5060485;28;20058;-65
2023/11/26 14:15:00;;;;;;;4.43;1.88;;;;;;;;;;5058978;28;20424;-66
2023/11/26 14:17:26;;;;;;;4.40;1.85;;;;;;;;;;5059488;28;20757;-66
2023/11/26 14:19:58;;;;;;;2.75;2.33;;;;;;;;;;5055947;28;20489;-63
2023/11/26 14:22:24;;;;;;;2.63;2.20;;;;;;;;;;5061597;28;20518;-62
2023/11/26 14:24:51;;;;;;;4.05;2.63;;;;;;;;;;5061257;28;20028;-62
2023/11/26 14:27:19;;;;;;;4.60;2.85;;;;;;;;;;5074062;28;20145;-64
2023/11/26 14:29:46;;;;;;;3.80;2.78;;;;;;;;;;5059497;28;20499;-62
2023/11/26 14:32:13;;;;;;;4.10;2.60;;;;;;;;;;5056490;28;20107;-65
2023/11/26 14:34:39;;;;;;;3.58;2.88;;;;;;;;;;5056197;28;20023;-68
2023/11/26 14:37:07;;;;;;;3.72;2.78;;;;;;;;;;5059543;28;20028;-64
2023/11/26 14:39:33;;;;;;;4.57;3.75;;;;;;;;;;5059282;28;20024;-67
2023/11/26 14:41:59;;;;;;;3.53;2.78;;;;;;;;;;5056832;28;20036;-64
2023/11/26 14:44:25;;;;;;;8.77;4.80;;;;;;;;;;5060246;28;20697;-64
2023/11/26 14:46:52;;;;;;;7.13;3.90;;;;;;;;;;5055344;28;20167;-64